createdAt,value
2018-08-18T00:00:08.639Z,10.67
2018-08-18T00:02:38.336Z,10.67
2018-08-18T00:05:08.626Z,10.40
2018-08-18T00:07:37.115Z,10.43
2018-08-18T00:10:08.112Z,10.03
2018-08-18T00:12:36.675Z,10.87
2018-08-18T00:15:05.975Z,12.33
2018-08-18T00:17:34.819Z,9.93
2018-08-18T00:20:03.427Z,9.93
2018-08-18T00:22:31.904Z,11.20
2018-08-18T00:25:00.502Z,10.27
2018-08-18T00:27:29.099Z,11.77
2018-08-18T00:30:02.946Z,11.10
2018-08-18T00:32:31.393Z,10.80
2018-08-18T00:34:59.839Z,9.90
2018-08-18T00:37:28.356Z,9.27
2018-08-18T00:39:57.214Z,9.40
2018-08-18T00:42:25.756Z,9.30
2018-08-18T00:44:54.499Z,9.97
2018-08-18T00:47:23.071Z,10.17
2018-08-18T00:49:51.492Z,10.60
2018-08-18T00:52:19.980Z,9.17
2018-08-18T00:54:48.567Z,10.20
2018-08-18T00:57:27.713Z,11.30
2018-08-18T00:59:56.672Z,10.40
2018-08-18T01:02:25.592Z,8.83
2018-08-18T01:04:58.122Z,9.17
2018-08-18T01:07:27.417Z,9.10
2018-08-18T01:09:56.202Z,10.10
2018-08-18T01:12:25.615Z,11.90
2018-08-18T01:14:54.412Z,10.50
2018-08-18T01:17:23.320Z,10.50
2018-08-18T01:19:54.564Z,11.07
2018-08-18T01:22:23.037Z,9.50
2018-08-18T01:24:52.308Z,10.30
2018-08-18T01:27:20.967Z,9.30
2018-08-18T01:29:54.677Z,10.40
2018-08-18T01:32:23.176Z,10.00
2018-08-18T01:34:58.036Z,8.80
2018-08-18T01:37:26.442Z,9.50
2018-08-18T01:39:55.815Z,9.90
2018-08-18T01:42:24.232Z,9.00
2018-08-18T01:44:53.670Z,9.57
2018-08-18T01:47:22.190Z,8.77
2018-08-18T01:49:50.763Z,9.53
2018-08-18T01:52:24.435Z,8.87
2018-08-18T01:54:53.061Z,8.13
2018-08-18T01:57:23.378Z,8.10
2018-08-18T01:59:52.040Z,8.40
2018-08-18T02:02:25.556Z,8.23
2018-08-18T02:04:54.607Z,8.37
2018-08-18T02:07:29.363Z,7.27
2018-08-18T02:09:58.142Z,7.03
2018-08-18T02:12:27.095Z,7.20
2018-08-18T02:14:56.089Z,7.00
2018-08-18T02:17:25.818Z,7.73
2018-08-18T02:19:54.676Z,7.47
2018-08-18T02:22:23.830Z,7.33
2018-08-18T02:24:52.387Z,7.70
2018-08-18T02:27:20.949Z,7.93
2018-08-18T02:30:01.099Z,7.40
2018-08-18T02:32:31.854Z,7.60
2018-08-18T02:35:00.397Z,8.30
2018-08-18T02:37:29.772Z,8.03
2018-08-18T02:39:59.028Z,7.40
2018-08-18T02:42:27.496Z,6.97
2018-08-18T02:44:56.011Z,6.53
2018-08-18T02:47:24.611Z,6.60
2018-08-18T02:49:54.163Z,8.87
2018-08-18T02:52:23.592Z,9.33
2018-08-18T02:55:08.180Z,9.00
2018-08-18T02:57:37.835Z,8.67
2018-08-18T03:00:08.276Z,8.37
2018-08-18T03:02:36.726Z,8.10
2018-08-18T03:05:05.578Z,7.53
2018-08-18T03:07:38.091Z,7.77
2018-08-18T03:10:14.404Z,8.83
2018-08-18T03:12:45.829Z,9.47
2018-08-18T03:15:50.923Z,9.03
2018-08-18T03:18:29.692Z,9.87
2018-08-18T03:20:58.388Z,9.03
2018-08-18T03:23:26.767Z,8.90
2018-08-18T03:25:55.285Z,9.77
2018-08-18T03:28:23.939Z,10.40
2018-08-18T03:30:52.729Z,10.07
2018-08-18T03:33:21.232Z,10.73
2018-08-18T03:35:49.793Z,10.60
2018-08-18T03:38:18.380Z,14.77
2018-08-18T03:40:46.784Z,13.20
2018-08-18T03:43:15.359Z,11.53
2018-08-18T03:45:43.832Z,9.83
2018-08-18T03:48:12.292Z,8.47
2018-08-18T03:50:48.956Z,7.13
2018-08-18T03:53:18.816Z,7.77
2018-08-18T03:55:47.297Z,7.50
2018-08-18T03:58:15.824Z,6.83
2018-08-18T04:00:44.215Z,6.53
2018-08-18T04:03:19.180Z,6.00
2018-08-18T04:05:47.770Z,5.93
2018-08-18T04:08:16.308Z,5.33
2018-08-18T04:10:44.717Z,6.40
2018-08-18T04:13:13.184Z,5.60
2018-08-18T04:15:41.606Z,4.70
2018-08-18T04:18:14.471Z,4.57
2018-08-18T04:20:42.931Z,4.40
2018-08-18T04:23:11.355Z,4.40
2018-08-18T04:25:39.772Z,4.70
2018-08-18T04:28:08.331Z,4.67
2018-08-18T04:30:36.849Z,5.40
2018-08-18T04:33:05.292Z,6.30
2018-08-18T04:35:34.160Z,5.70
2018-08-18T04:38:03.604Z,6.30
2018-08-18T04:40:32.174Z,6.50
2018-08-18T04:43:01.507Z,5.60
2018-08-18T04:45:30.834Z,5.10
2018-08-18T04:47:59.239Z,4.97
2018-08-18T04:50:27.718Z,4.00
2018-08-18T04:52:56.145Z,5.00
2018-08-18T04:55:24.739Z,4.87
2018-08-18T04:57:53.173Z,5.03
2018-08-18T05:00:22.819Z,5.30
2018-08-18T05:02:56.736Z,4.93
2018-08-18T05:05:31.826Z,4.50
2018-08-18T05:08:01.335Z,4.60
2018-08-18T05:10:29.961Z,4.70
2018-08-18T05:12:58.464Z,4.50
2018-08-18T05:15:26.951Z,4.57
2018-08-18T05:17:55.488Z,5.70
2018-08-18T05:20:25.561Z,5.00
2018-08-18T05:22:54.003Z,4.67
2018-08-18T05:25:29.415Z,4.30
2018-08-18T05:27:58.337Z,4.87
2018-08-18T05:30:26.855Z,4.40
2018-08-18T05:32:55.335Z,4.30
2018-08-18T05:35:23.767Z,5.23
2018-08-18T05:37:52.150Z,4.90
2018-08-18T05:40:20.524Z,5.50
2018-08-18T05:42:49.000Z,4.50
2018-08-18T05:45:24.196Z,4.20
2018-08-18T05:47:53.441Z,5.23
2018-08-18T05:50:24.013Z,4.80
2018-08-18T05:52:55.525Z,4.00
2018-08-18T05:55:24.359Z,3.70
2018-08-18T05:57:52.959Z,3.90
2018-08-18T06:00:23.986Z,4.60
2018-08-18T06:02:58.499Z,4.77
2018-08-18T06:05:29.856Z,4.67
2018-08-18T06:07:59.212Z,5.20
2018-08-18T06:10:27.648Z,5.17
2018-08-18T06:12:56.357Z,4.80
2018-08-18T06:15:25.329Z,5.23
2018-08-18T06:17:53.864Z,5.20
2018-08-18T06:20:22.348Z,5.57
2018-08-18T06:22:50.794Z,5.23
2018-08-18T06:25:19.274Z,4.87
2018-08-18T06:27:47.704Z,4.20
2018-08-18T06:30:16.400Z,4.90
2018-08-18T06:32:44.857Z,4.50
2018-08-18T06:35:13.287Z,4.37
2018-08-18T06:37:44.853Z,4.87
2018-08-18T06:40:13.445Z,3.77
2018-08-18T06:42:43.209Z,3.63
2018-08-18T06:45:14.711Z,3.50
2018-08-18T06:47:43.710Z,4.20
2018-08-18T06:50:14.816Z,4.50
2018-08-18T06:52:44.176Z,4.47
2018-08-18T06:55:16.099Z,3.83
2018-08-18T06:57:48.347Z,4.20
2018-08-18T07:00:19.082Z,4.60
2018-08-18T07:02:47.579Z,3.67
2018-08-18T07:05:17.252Z,3.87
2018-08-18T07:07:46.444Z,3.90
2018-08-18T07:10:33.633Z,4.57
2018-08-18T07:13:04.445Z,3.77
2018-08-18T07:15:35.017Z,3.77
2018-08-18T07:18:03.555Z,3.37
2018-08-18T07:20:32.581Z,3.57
2018-08-18T07:23:01.091Z,3.80
2018-08-18T07:25:29.659Z,3.80
2018-08-18T07:28:03.397Z,3.50
2018-08-18T07:30:32.274Z,3.70
2018-08-18T07:33:01.344Z,3.20
2018-08-18T07:35:30.468Z,4.30
2018-08-18T07:37:58.928Z,3.40
2018-08-18T07:40:33.807Z,4.10
2018-08-18T07:43:05.333Z,3.67
2018-08-18T07:45:34.244Z,2.73
2018-08-18T07:48:02.923Z,3.00
2018-08-18T07:50:31.703Z,3.00
2018-08-18T07:53:00.364Z,3.10
2018-08-18T07:55:29.070Z,3.50
2018-08-18T07:57:59.129Z,2.80
2018-08-18T08:00:28.909Z,2.67
2018-08-18T08:02:57.648Z,3.03
2018-08-18T08:05:26.147Z,2.93
2018-08-18T08:07:54.579Z,2.93
2018-08-18T08:10:23.124Z,3.40
2018-08-18T08:12:51.730Z,3.10
2018-08-18T08:15:20.289Z,3.03
2018-08-18T08:17:48.868Z,2.80
2018-08-18T08:20:18.130Z,2.70
2018-08-18T08:22:47.641Z,2.67
2018-08-18T08:25:16.286Z,2.50
2018-08-18T08:30:26.940Z,2.13
2018-08-18T08:32:55.531Z,2.50
2018-08-18T08:35:24.009Z,2.50
2018-08-18T08:37:53.352Z,2.30
2018-08-18T08:40:23.279Z,2.03
2018-08-18T08:42:52.090Z,1.73
2018-08-18T08:45:22.745Z,1.90
2018-08-18T08:47:51.258Z,2.00
2018-08-18T08:50:22.170Z,2.43
2018-08-18T08:52:57.911Z,2.10
2018-08-18T08:55:27.785Z,2.07
2018-08-18T08:57:57.159Z,2.40
2018-08-18T09:00:25.851Z,2.20
2018-08-18T09:02:55.068Z,1.97
2018-08-18T09:05:23.987Z,1.80
2018-08-18T09:07:52.576Z,1.77
2018-08-18T09:10:21.870Z,1.87
2018-08-18T09:12:50.325Z,1.62
2018-08-18T09:15:20.180Z,1.82
2018-08-18T09:17:48.624Z,2.05
2018-08-18T09:20:18.787Z,1.60
2018-08-18T09:22:58.897Z,1.75
2018-08-18T09:25:29.137Z,2.80
2018-08-18T09:27:59.238Z,1.75
2018-08-18T09:30:29.969Z,2.80
2018-08-18T09:32:59.371Z,2.42
2018-08-18T09:35:27.812Z,1.80
2018-08-18T09:38:00.669Z,3.00
2018-08-18T09:40:30.873Z,1.87
2018-08-18T09:42:59.703Z,2.15
2018-08-18T09:45:28.178Z,1.90
2018-08-18T09:47:56.667Z,1.62
2018-08-18T09:50:25.207Z,2.17
2018-08-18T09:52:53.693Z,1.95
2018-08-18T09:55:22.272Z,2.05
2018-08-18T09:57:50.751Z,2.05
2018-08-18T10:00:25.564Z,2.05
2018-08-18T10:02:54.385Z,2.10
2018-08-18T10:05:24.796Z,2.00
2018-08-18T10:07:53.289Z,2.20
2018-08-18T10:10:23.446Z,2.72
2018-08-18T10:12:51.995Z,2.37
2018-08-18T10:15:21.327Z,1.77
2018-08-18T10:17:50.029Z,2.00
2018-08-18T10:20:18.513Z,2.30
2018-08-18T10:22:47.123Z,2.47
2018-08-18T10:25:16.516Z,2.70
2018-08-18T10:27:45.064Z,2.33
2018-08-18T10:30:13.610Z,2.08
2018-08-18T10:32:50.446Z,1.85
2018-08-18T10:35:24.342Z,2.37
2018-08-18T10:37:52.868Z,2.80
2018-08-18T10:40:21.366Z,2.17
2018-08-18T10:42:50.023Z,3.60
2018-08-18T10:45:18.507Z,2.75
2018-08-18T10:47:46.969Z,2.22
2018-08-18T10:51:34.385Z,2.80
2018-08-18T10:54:03.056Z,2.45
2018-08-18T10:56:31.540Z,4.08
2018-08-18T10:59:14.714Z,3.10
2018-08-18T11:02:49.811Z,2.80
2018-08-18T11:05:18.852Z,3.02
2018-08-18T11:07:54.763Z,3.22
2018-08-18T11:10:24.673Z,2.42
2018-08-18T11:12:53.279Z,3.40
2018-08-18T11:15:21.967Z,2.72
2018-08-18T11:17:50.676Z,2.80
2018-08-18T11:20:35.271Z,2.67
2018-08-18T11:23:10.399Z,2.98
2018-08-18T11:25:43.220Z,4.87
2018-08-18T11:28:12.543Z,2.87
2018-08-18T11:30:41.020Z,3.77
2018-08-18T11:33:09.763Z,3.50
2018-08-18T11:35:38.638Z,3.12
2018-08-18T11:38:16.456Z,3.05
2018-08-18T11:40:45.330Z,3.30
2018-08-18T11:43:15.347Z,3.12
2018-08-18T11:45:44.472Z,3.27
2018-08-18T11:48:22.343Z,2.92
2018-08-18T11:50:52.106Z,2.60
2018-08-18T11:53:20.607Z,3.17
2018-08-18T11:55:49.128Z,2.80
2018-08-18T11:58:18.851Z,2.80
2018-08-18T12:00:50.697Z,2.40
2018-08-18T12:03:23.407Z,3.12
2018-08-18T12:05:55.405Z,3.08
2018-08-18T12:08:26.162Z,6.03
2018-08-18T12:10:56.684Z,6.92
2018-08-18T12:13:30.952Z,3.52
2018-08-18T12:16:07.656Z,5.37
2018-08-18T12:18:38.155Z,2.75
2018-08-18T12:21:06.734Z,3.47
2018-08-18T12:23:37.083Z,3.12
2018-08-18T12:26:08.926Z,2.75
2018-08-18T12:28:42.784Z,2.90
2018-08-18T12:31:13.283Z,2.85
2018-08-18T12:33:41.848Z,2.65
2018-08-18T12:36:10.414Z,2.92
2018-08-18T12:38:42.379Z,3.20
2018-08-18T12:41:11.021Z,2.75
2018-08-18T12:43:40.701Z,3.00
2018-08-18T12:46:10.691Z,2.90
2018-08-18T12:48:40.608Z,3.37
2018-08-18T12:51:10.279Z,2.77
2018-08-18T12:53:44.249Z,2.67
2018-08-18T12:56:13.951Z,2.98
2018-08-18T12:58:42.692Z,2.42
2018-08-18T13:01:11.287Z,2.20
2018-08-18T13:03:39.808Z,2.60
2018-08-18T13:06:09.153Z,2.72
2018-08-18T13:08:38.442Z,3.05
2018-08-18T13:11:07.054Z,2.67
2018-08-18T13:13:36.469Z,2.42
2018-08-18T13:16:05.184Z,2.67
2018-08-18T13:18:34.252Z,2.85
2018-08-18T13:21:02.716Z,2.80
2018-08-18T13:23:31.185Z,2.92
2018-08-18T13:25:59.618Z,2.62
2018-08-18T13:28:28.160Z,3.02
2018-08-18T13:30:56.810Z,3.25
2018-08-18T13:33:25.906Z,2.83
2018-08-18T13:35:54.342Z,2.92
2018-08-18T13:38:30.575Z,3.30
2018-08-18T13:40:59.118Z,3.00
2018-08-18T13:43:39.672Z,3.35
2018-08-18T13:46:09.907Z,2.83
2018-08-18T13:48:38.471Z,2.70
2018-08-18T13:51:07.935Z,2.70
2018-08-18T13:53:43.530Z,2.83
2018-08-18T13:56:12.095Z,2.72
2018-08-18T13:58:40.687Z,2.67
2018-08-18T14:01:26.932Z,2.72
2018-08-18T14:03:55.668Z,2.45
2018-08-18T14:06:24.254Z,3.22
2018-08-18T14:09:01.829Z,2.62
2018-08-18T14:11:31.352Z,3.58
2018-08-18T14:14:00.466Z,3.02
2018-08-18T14:16:30.819Z,3.40
2018-08-18T14:19:01.595Z,2.50
2018-08-18T14:21:30.121Z,2.83
2018-08-18T14:23:58.541Z,3.40
2018-08-18T14:26:27.180Z,2.80
2018-08-18T14:28:55.710Z,2.37
2018-08-18T14:31:24.263Z,2.17
2018-08-18T14:33:52.725Z,2.70
2018-08-18T14:36:23.431Z,2.92
2018-08-18T14:38:52.908Z,2.85
2018-08-18T14:41:35.268Z,2.60
2018-08-18T14:44:04.152Z,2.42
2018-08-18T14:46:32.918Z,2.77
2018-08-18T14:49:02.319Z,2.52
2018-08-18T14:51:31.003Z,2.40
2018-08-18T14:54:00.503Z,2.25
2018-08-18T14:56:29.725Z,2.80
2018-08-18T14:58:58.762Z,2.75
2018-08-18T15:01:27.339Z,2.90
2018-08-18T15:03:55.777Z,2.50
2018-08-18T15:06:24.460Z,2.47
2018-08-18T15:08:53.004Z,2.37
2018-08-18T15:11:21.345Z,2.30
2018-08-18T15:13:49.863Z,2.37
2018-08-18T15:16:18.599Z,2.15
2018-08-18T15:18:47.064Z,2.65
2018-08-18T15:21:15.660Z,2.17
2018-08-18T15:23:44.102Z,2.62
2018-08-18T15:26:12.576Z,2.85
2018-08-18T15:28:41.012Z,2.12
2018-08-18T15:31:09.616Z,4.10
2018-08-18T15:33:38.795Z,1.80
2018-08-18T15:36:17.264Z,2.08
2018-08-18T15:38:46.642Z,1.85
2018-08-18T15:41:15.108Z,2.00
2018-08-18T15:43:43.558Z,2.10
2018-08-18T15:46:12.124Z,1.70
2018-08-18T15:48:42.123Z,1.92
2018-08-18T15:51:10.777Z,1.80
2018-08-18T15:53:51.764Z,1.87
2018-08-18T15:56:21.078Z,2.02
2018-08-18T15:58:50.351Z,2.10
2018-08-18T16:01:20.970Z,1.85
2018-08-18T16:03:49.638Z,2.25
2018-08-18T16:06:18.143Z,1.60
2018-08-18T16:08:46.702Z,1.55
2018-08-18T16:11:16.164Z,1.90
2018-08-18T16:13:44.920Z,1.60
2018-08-18T16:16:13.506Z,2.23
2018-08-18T16:18:42.094Z,3.20
2018-08-18T16:21:19.674Z,2.73
2018-08-18T16:23:48.252Z,1.90
2018-08-18T16:26:16.672Z,2.47
2018-08-18T16:28:45.131Z,2.63
2018-08-18T16:31:15.017Z,2.27
2018-08-18T16:33:43.543Z,2.43
2018-08-18T16:36:11.994Z,2.30
2018-08-18T16:38:44.563Z,2.20
2018-08-18T16:41:13.096Z,2.23
2018-08-18T16:43:41.499Z,2.13
2018-08-18T16:46:23.531Z,2.17
2018-08-18T16:48:52.629Z,1.87
2018-08-18T16:51:21.493Z,2.30
2018-08-18T16:53:50.018Z,2.10
2018-08-18T16:56:24.214Z,2.70
2018-08-18T16:58:54.110Z,2.43
2018-08-18T17:01:23.013Z,2.40
2018-08-18T17:03:51.508Z,2.23
2018-08-18T17:06:20.015Z,2.63
2018-08-18T17:08:48.473Z,2.07
2018-08-18T17:11:17.016Z,2.27
2018-08-18T17:13:45.447Z,2.10
2018-08-18T17:16:13.927Z,2.00
2018-08-18T17:18:42.404Z,3.00
2018-08-18T17:21:13.096Z,2.20
2018-08-18T17:23:41.917Z,2.30
2018-08-18T17:26:26.548Z,2.80
2018-08-18T17:28:54.960Z,1.80
2018-08-18T17:31:23.387Z,2.40
2018-08-18T17:33:51.885Z,2.20
2018-08-18T17:36:21.364Z,2.10
2018-08-18T17:38:49.843Z,2.33
2018-08-18T17:41:19.143Z,2.20
2018-08-18T17:43:47.553Z,1.80
2018-08-18T17:46:16.120Z,2.07
2018-08-18T17:48:49.973Z,2.30
2018-08-18T17:51:18.432Z,1.83
2018-08-18T17:53:54.009Z,2.00
2018-08-18T17:56:22.465Z,1.87
2018-08-18T17:58:51.000Z,2.30
2018-08-18T18:01:19.437Z,2.10
2018-08-18T18:03:47.875Z,2.20
2018-08-18T18:06:16.415Z,2.53
2018-08-18T18:08:45.084Z,2.37
2018-08-18T18:11:13.708Z,2.03
2018-08-18T18:13:42.415Z,1.90
2018-08-18T18:16:28.341Z,1.90
2018-08-18T18:18:59.132Z,2.10
2018-08-18T18:21:27.653Z,1.80
2018-08-18T18:23:56.210Z,2.13
2018-08-18T18:26:24.800Z,2.00
2018-08-18T18:28:59.828Z,1.77
2018-08-18T18:31:28.356Z,2.00
2018-08-18T18:34:01.968Z,2.00
2018-08-18T18:36:31.491Z,1.70
2018-08-18T18:39:00.126Z,1.73
2018-08-18T18:41:28.521Z,2.10
2018-08-18T18:44:02.718Z,2.07
2018-08-18T18:46:31.217Z,2.17
2018-08-18T18:48:59.796Z,1.90
2018-08-18T18:51:28.265Z,2.63
2018-08-18T18:53:57.817Z,2.10
2018-08-18T18:56:26.603Z,2.33
2018-08-18T18:58:55.180Z,2.30
2018-08-18T19:01:23.649Z,1.90
2018-08-18T19:03:52.179Z,1.73
2018-08-18T19:06:20.726Z,1.50
2018-08-18T19:08:59.840Z,1.70
2018-08-18T19:11:28.717Z,2.00
2018-08-18T19:13:57.349Z,1.90
2018-08-18T19:16:26.003Z,2.20
2018-08-18T19:18:54.547Z,2.13
2018-08-18T19:21:27.573Z,1.93
2018-08-18T19:23:56.071Z,2.57
2018-08-18T19:26:24.593Z,2.13
2018-08-18T19:28:53.440Z,2.37
2018-08-18T19:31:26.059Z,2.60
2018-08-18T19:34:03.490Z,2.90
2018-08-18T19:36:32.411Z,2.60
2018-08-18T19:39:00.934Z,3.27
2018-08-18T19:41:29.362Z,2.97
2018-08-18T19:43:57.851Z,2.77
2018-08-18T19:46:26.299Z,3.30
2018-08-18T19:48:54.950Z,3.10
2018-08-18T19:51:24.258Z,4.00
2018-08-18T19:53:52.738Z,3.20
2018-08-18T19:56:21.239Z,3.23
2018-08-18T19:58:49.695Z,3.47
2018-08-18T20:01:18.211Z,2.70
2018-08-18T20:03:46.676Z,2.47
2018-08-18T20:06:21.379Z,2.83
2018-08-18T20:08:49.799Z,3.00
2018-08-18T20:11:18.273Z,2.97
2018-08-18T20:13:46.835Z,3.50
2018-08-18T20:16:15.437Z,2.90
2018-08-18T20:18:43.817Z,2.83
2018-08-18T20:21:12.372Z,2.70
2018-08-18T20:23:40.883Z,2.60
2018-08-18T20:26:09.344Z,2.40
2018-08-18T20:28:37.848Z,2.37
2018-08-18T20:31:06.773Z,3.00
2018-08-18T20:33:35.198Z,2.70
2018-08-18T20:36:03.614Z,2.80
2018-08-18T20:38:36.122Z,3.07
2018-08-18T20:41:04.553Z,3.10
2018-08-18T20:43:32.992Z,3.80
2018-08-18T20:46:01.472Z,3.60
2018-08-18T20:48:29.908Z,3.20
2018-08-18T20:50:58.339Z,3.27
2018-08-18T20:53:27.923Z,3.17
2018-08-18T20:55:58.586Z,3.33
2018-08-18T20:58:27.696Z,3.30
2018-08-18T21:00:56.252Z,2.87
2018-08-18T21:03:34.521Z,3.20
2018-08-18T21:06:03.155Z,2.60
2018-08-18T21:08:31.593Z,3.07
2018-08-18T21:11:01.024Z,2.67
2018-08-18T21:13:29.557Z,2.50
2018-08-18T21:15:58.025Z,3.70
2018-08-18T21:18:26.580Z,3.30
2018-08-18T21:20:55.029Z,3.87
2018-08-18T21:23:24.280Z,2.70
2018-08-18T21:25:53.625Z,3.37
2018-08-18T21:28:24.764Z,3.50
2018-08-18T21:30:53.231Z,2.73
2018-08-18T21:33:24.698Z,2.53
2018-08-18T21:35:53.511Z,2.30
2018-08-18T21:38:23.066Z,2.33
2018-08-18T21:40:51.675Z,2.30
2018-08-18T21:43:30.378Z,2.70
2018-08-18T21:45:58.751Z,2.60
2018-08-18T21:48:38.334Z,2.60
2018-08-18T21:51:07.082Z,2.60
2018-08-18T21:53:35.616Z,2.07
2018-08-18T21:56:04.112Z,2.70
2018-08-18T21:58:32.609Z,2.83
2018-08-18T22:01:06.351Z,2.43
2018-08-18T22:03:34.797Z,2.70
2018-08-18T22:06:03.421Z,2.33
2018-08-18T22:08:31.932Z,2.40
2018-08-18T22:11:00.450Z,2.70
2018-08-18T22:13:32.996Z,2.27
2018-08-18T22:16:02.179Z,2.70
2018-08-18T22:18:31.135Z,2.40
2018-08-18T22:20:59.580Z,2.00
2018-08-18T22:23:28.101Z,2.27
2018-08-18T22:25:56.751Z,2.33
2018-08-18T22:28:25.311Z,2.53
2018-08-18T22:30:54.887Z,2.30
2018-08-18T22:33:27.732Z,2.40
2018-08-18T22:35:58.048Z,2.30
2018-08-18T22:38:26.497Z,2.13
2018-08-18T22:40:54.911Z,2.10
2018-08-18T22:43:34.557Z,2.80
2018-08-18T22:46:03.241Z,2.33
2018-08-18T22:48:32.016Z,2.63
2018-08-18T22:51:00.568Z,2.30
2018-08-18T22:53:29.016Z,2.80
2018-08-18T22:55:57.459Z,2.60
2018-08-18T22:58:25.925Z,2.30
2018-08-18T23:00:55.812Z,2.70
2018-08-18T23:03:24.352Z,1.93
2018-08-18T23:05:52.759Z,2.17
2018-08-18T23:08:21.276Z,2.37
2018-08-18T23:10:49.644Z,2.00
2018-08-18T23:13:18.083Z,2.10
2018-08-18T23:15:46.495Z,2.50
2018-08-18T23:18:14.988Z,2.20
2018-08-18T23:20:43.395Z,2.10
2018-08-18T23:23:11.840Z,2.70
2018-08-18T23:25:40.266Z,3.63
2018-08-18T23:28:08.826Z,2.60
2018-08-18T23:30:38.132Z,2.67
2018-08-18T23:33:08.215Z,2.40
2018-08-18T23:35:36.711Z,2.50
2018-08-18T23:38:05.210Z,3.03
2018-08-18T23:40:33.703Z,2.53
2018-08-18T23:43:02.175Z,2.43
2018-08-18T23:45:38.531Z,2.60
2018-08-18T23:48:10.182Z,2.33
2018-08-18T23:50:39.600Z,2.97
2018-08-18T23:53:11.653Z,2.83
2018-08-18T23:56:00.372Z,2.80
2018-08-18T23:58:29.964Z,2.77
